createdAt,value
2017-11-26T00:01:32.901Z,10.82
2017-11-26T00:03:59.492Z,11.20
2017-11-26T00:06:25.710Z,14.98
2017-11-26T00:08:51.926Z,12.00
2017-11-26T00:11:18.122Z,10.00
2017-11-26T00:13:44.338Z,10.32
2017-11-26T00:16:10.547Z,11.38
2017-11-26T00:18:36.815Z,13.07
2017-11-26T00:21:03.066Z,13.75
2017-11-26T00:23:29.309Z,13.88
2017-11-26T00:25:55.587Z,14.75
2017-11-26T00:28:22.206Z,11.50
2017-11-26T00:30:48.434Z,12.70
2017-11-26T00:33:14.651Z,10.80
2017-11-26T00:35:40.917Z,12.40
2017-11-26T00:38:07.513Z,12.10
2017-11-26T00:40:33.753Z,12.07
2017-11-26T00:42:59.965Z,11.82
2017-11-26T00:45:26.198Z,11.12
2017-11-26T00:47:52.425Z,11.70
2017-11-26T00:50:18.630Z,10.75
2017-11-26T00:52:44.887Z,8.73
2017-11-26T00:55:11.114Z,8.32
2017-11-26T00:57:37.343Z,10.00
2017-11-26T01:00:03.590Z,9.68
2017-11-26T01:02:29.832Z,8.48
2017-11-26T01:04:56.410Z,8.38
2017-11-26T01:07:22.615Z,9.00
2017-11-26T01:09:48.871Z,8.23
2017-11-26T01:12:15.074Z,8.48
2017-11-26T01:14:41.345Z,7.82
2017-11-26T01:17:07.564Z,7.80
2017-11-26T01:19:33.771Z,8.70
2017-11-26T01:21:59.994Z,7.60
2017-11-26T01:24:26.209Z,8.65
2017-11-26T01:26:52.445Z,8.48
2017-11-26T01:29:18.642Z,7.22
2017-11-26T01:31:45.230Z,6.30
2017-11-26T01:34:11.468Z,6.15
2017-11-26T01:36:37.714Z,5.07
2017-11-26T01:39:03.960Z,5.20
2017-11-26T01:41:30.602Z,4.93
2017-11-26T01:43:57.222Z,4.30
2017-11-26T01:46:23.474Z,4.80
2017-11-26T01:48:49.690Z,4.25
2017-11-26T01:51:15.991Z,3.67
2017-11-26T01:53:42.237Z,3.87
2017-11-26T01:56:08.500Z,3.90
2017-11-26T01:58:34.785Z,3.80
2017-11-26T02:01:01.045Z,4.62
2017-11-26T02:03:27.335Z,4.00
2017-11-26T02:05:53.609Z,3.72
2017-11-26T02:08:19.877Z,3.15
2017-11-26T02:10:46.117Z,3.47
2017-11-26T02:13:12.362Z,3.90
2017-11-26T02:15:38.617Z,3.35
2017-11-26T02:18:05.223Z,3.72
2017-11-26T02:20:31.491Z,2.85
2017-11-26T02:22:57.752Z,3.67
2017-11-26T02:25:24.012Z,3.50
2017-11-26T02:27:50.262Z,3.25
2017-11-26T02:30:16.863Z,3.55
2017-11-26T02:32:55.372Z,4.05
2017-11-26T02:35:33.707Z,3.72
2017-11-26T02:37:59.982Z,4.37
2017-11-26T02:40:26.234Z,3.20
2017-11-26T02:42:52.502Z,3.03
2017-11-26T02:45:18.742Z,4.28
2017-11-26T02:47:45.026Z,3.80
2017-11-26T02:50:11.285Z,4.18
2017-11-26T02:52:37.565Z,3.85
2017-11-26T02:55:03.835Z,5.05
2017-11-26T02:57:30.890Z,4.40
2017-11-26T02:59:57.173Z,4.10
2017-11-26T03:02:23.400Z,4.85
2017-11-26T03:04:49.662Z,3.95
2017-11-26T03:07:15.884Z,4.20
2017-11-26T03:09:42.112Z,5.28
2017-11-26T03:12:08.350Z,3.78
2017-11-26T03:14:34.572Z,4.62
2017-11-26T03:17:00.798Z,3.50
2017-11-26T03:19:27.441Z,3.90
2017-11-26T03:21:53.653Z,3.10
2017-11-26T03:24:19.942Z,4.75
2017-11-26T03:26:46.258Z,3.70
2017-11-26T03:29:12.547Z,3.10
2017-11-26T03:31:38.790Z,3.87
2017-11-26T03:34:05.025Z,3.60
2017-11-26T03:36:31.241Z,3.65
2017-11-26T03:38:57.481Z,5.68
2017-11-26T03:41:23.713Z,3.55
2017-11-26T03:43:49.941Z,3.33
2017-11-26T03:46:16.567Z,3.03
2017-11-26T03:48:42.856Z,3.50
2017-11-26T03:51:09.083Z,3.78
2017-11-26T03:53:35.322Z,3.20
2017-11-26T03:56:01.563Z,3.67
2017-11-26T03:58:27.812Z,3.80
2017-11-26T04:00:54.075Z,3.60
2017-11-26T04:03:20.291Z,3.90
2017-11-26T04:05:46.512Z,4.12
2017-11-26T04:08:12.780Z,3.45
2017-11-26T04:10:39.019Z,3.78
2017-11-26T04:13:05.228Z,3.55
2017-11-26T04:15:31.483Z,3.87
2017-11-26T04:17:57.721Z,4.20
2017-11-26T04:20:24.000Z,3.47
2017-11-26T04:22:50.635Z,2.58
2017-11-26T04:25:16.889Z,2.45
2017-11-26T04:27:43.132Z,2.42
2017-11-26T04:30:09.369Z,3.20
2017-11-26T04:32:35.595Z,2.42
2017-11-26T04:35:01.865Z,3.05
2017-11-26T04:37:28.072Z,2.17
2017-11-26T04:39:54.287Z,2.42
2017-11-26T04:42:20.522Z,2.10
2017-11-26T04:44:46.781Z,2.25
2017-11-26T04:47:13.283Z,2.37
2017-11-26T04:49:39.507Z,1.77
2017-11-26T04:52:05.716Z,1.80
2017-11-26T04:54:31.975Z,1.70
2017-11-26T04:56:58.205Z,3.83
2017-11-26T04:59:24.533Z,3.67
2017-11-26T05:01:51.271Z,3.30
2017-11-26T05:04:17.522Z,3.78
2017-11-26T05:06:44.106Z,5.93
2017-11-26T05:09:10.388Z,3.62
2017-11-26T05:11:36.992Z,3.40
2017-11-26T05:14:03.209Z,3.83
2017-11-26T05:16:29.432Z,3.55
2017-11-26T05:18:55.664Z,3.05
2017-11-26T05:21:21.899Z,3.67
2017-11-26T05:23:48.171Z,5.40
2017-11-26T05:26:14.784Z,3.80
2017-11-26T05:28:41.068Z,4.68
2017-11-26T05:31:07.306Z,4.00
2017-11-26T05:33:33.541Z,5.47
2017-11-26T05:35:59.799Z,5.97
2017-11-26T05:38:26.639Z,7.72
2017-11-26T05:40:52.939Z,8.75
2017-11-26T05:43:19.133Z,9.70
2017-11-26T05:45:45.380Z,4.93
2017-11-26T05:48:11.615Z,4.87
2017-11-26T05:50:37.854Z,5.32
2017-11-26T05:53:04.099Z,3.87
2017-11-26T05:55:30.353Z,5.40
2017-11-26T05:57:56.944Z,4.00
2017-11-26T06:00:23.223Z,3.28
2017-11-26T06:02:49.789Z,3.47
2017-11-26T06:05:16.018Z,4.80
2017-11-26T06:07:42.268Z,3.45
2017-11-26T06:10:08.528Z,3.28
2017-11-26T06:12:34.744Z,3.62
2017-11-26T06:15:00.966Z,3.40
2017-11-26T06:17:27.244Z,3.45
2017-11-26T06:19:53.504Z,3.40
2017-11-26T06:22:19.801Z,2.90
2017-11-26T06:24:46.066Z,2.80
2017-11-26T06:27:12.326Z,3.30
2017-11-26T06:29:38.593Z,3.60
2017-11-26T06:32:04.825Z,3.12
2017-11-26T06:34:31.033Z,3.05
2017-11-26T06:36:57.658Z,2.85
2017-11-26T06:39:24.236Z,3.28
2017-11-26T06:41:50.473Z,3.10
2017-11-26T06:44:16.719Z,2.70
2017-11-26T06:46:43.000Z,3.17
2017-11-26T06:49:09.592Z,4.45
2017-11-26T06:51:35.857Z,3.78
2017-11-26T06:54:02.469Z,4.15
2017-11-26T06:56:28.725Z,3.42
2017-11-26T06:58:55.383Z,3.50
2017-11-26T07:01:21.653Z,3.83
2017-11-26T07:03:47.894Z,4.00
2017-11-26T07:06:14.121Z,4.07
2017-11-26T07:08:40.358Z,3.80
2017-11-26T07:11:06.634Z,4.12
2017-11-26T07:13:32.889Z,4.82
2017-11-26T07:15:59.140Z,4.78
2017-11-26T07:18:25.353Z,5.15
2017-11-26T07:20:51.592Z,9.73
2017-11-26T07:23:17.807Z,4.93
2017-11-26T07:25:44.061Z,4.47
2017-11-26T07:28:10.647Z,6.32
2017-11-26T07:30:36.945Z,5.70
2017-11-26T07:33:03.543Z,5.03
2017-11-26T07:35:29.799Z,5.62
2017-11-26T07:37:56.397Z,5.43
2017-11-26T07:40:22.695Z,5.00
2017-11-26T07:42:48.917Z,5.47
2017-11-26T07:45:15.156Z,5.95
2017-11-26T07:47:41.380Z,5.90
2017-11-26T07:50:07.590Z,6.62
2017-11-26T07:52:33.855Z,6.18
2017-11-26T07:55:00.139Z,5.75
2017-11-26T07:57:26.393Z,5.43
2017-11-26T07:59:52.688Z,6.40
2017-11-26T08:02:19.329Z,5.87
2017-11-26T08:04:45.966Z,6.00
2017-11-26T08:07:12.569Z,8.52
2017-11-26T08:09:38.793Z,6.93
2017-11-26T08:12:05.065Z,7.75
2017-11-26T08:14:31.645Z,7.95
2017-11-26T08:16:57.938Z,5.80
2017-11-26T08:19:24.538Z,6.10
2017-11-26T08:21:50.758Z,6.93
2017-11-26T08:24:16.963Z,7.12
2017-11-26T08:26:43.201Z,6.37
2017-11-26T08:29:09.408Z,6.47
2017-11-26T08:31:35.940Z,6.00
2017-11-26T08:34:02.150Z,5.90
2017-11-26T08:36:28.387Z,5.53
2017-11-26T08:38:54.619Z,7.15
2017-11-26T08:41:20.865Z,6.22
2017-11-26T08:43:47.119Z,6.75
2017-11-26T08:46:13.407Z,7.05
2017-11-26T08:48:39.665Z,6.40
2017-11-26T08:51:05.912Z,9.23
2017-11-26T08:53:32.201Z,6.50
2017-11-26T08:55:58.455Z,12.73
2017-11-26T08:58:24.737Z,6.87
2017-11-26T09:00:51.017Z,5.93
2017-11-26T09:03:17.265Z,6.55
2017-11-26T09:05:43.506Z,6.10
2017-11-26T09:08:10.156Z,5.95
2017-11-26T09:10:36.845Z,6.75
2017-11-26T09:13:03.114Z,6.10
2017-11-26T09:15:29.791Z,6.68
2017-11-26T09:17:56.048Z,6.97
2017-11-26T09:20:22.310Z,8.45
2017-11-26T09:22:48.922Z,9.93
2017-11-26T09:25:15.139Z,8.25
2017-11-26T09:27:41.425Z,6.37
2017-11-26T09:30:07.657Z,6.40
2017-11-26T09:32:33.884Z,7.82
2017-11-26T09:35:00.122Z,7.40
2017-11-26T09:37:26.384Z,5.30
2017-11-26T09:39:52.623Z,5.78
2017-11-26T09:42:18.874Z,6.93
2017-11-26T09:44:45.155Z,5.90
2017-11-26T09:47:11.388Z,4.60
2017-11-26T09:49:37.709Z,6.10
2017-11-26T09:52:03.971Z,5.45
2017-11-26T09:54:30.209Z,4.90
2017-11-26T09:56:56.452Z,5.28
2017-11-26T09:59:22.719Z,5.47
2017-11-26T10:01:49.000Z,6.12
2017-11-26T10:04:15.625Z,5.97
2017-11-26T10:06:41.852Z,5.75
2017-11-26T10:09:08.099Z,5.47
2017-11-26T10:11:34.743Z,5.57
2017-11-26T10:14:01.391Z,6.12
2017-11-26T10:16:27.637Z,5.37
2017-11-26T10:18:53.943Z,5.80
2017-11-26T10:21:20.194Z,6.00
2017-11-26T10:23:46.431Z,6.12
2017-11-26T10:26:12.662Z,6.28
2017-11-26T10:28:38.940Z,7.15
2017-11-26T10:31:05.593Z,6.03
2017-11-26T10:33:31.903Z,6.55
2017-11-26T10:35:58.137Z,7.00
2017-11-26T10:38:24.418Z,7.70
2017-11-26T10:40:50.670Z,6.32
2017-11-26T10:43:17.332Z,5.72
2017-11-26T10:45:43.978Z,6.40
2017-11-26T10:48:10.612Z,6.03
2017-11-26T10:50:37.294Z,5.15
2017-11-26T10:53:03.593Z,7.05
2017-11-26T10:55:29.883Z,5.43
2017-11-26T10:57:56.205Z,6.18
2017-11-26T11:00:22.532Z,5.87
2017-11-26T11:02:48.785Z,6.10
2017-11-26T11:05:15.102Z,4.30
2017-11-26T11:07:41.359Z,4.25
2017-11-26T11:10:07.639Z,5.18
2017-11-26T11:12:33.880Z,3.83
2017-11-26T11:15:00.153Z,4.22
2017-11-26T11:17:26.768Z,5.68
2017-11-26T11:19:53.052Z,4.00
2017-11-26T11:22:19.330Z,4.35
2017-11-26T11:24:45.595Z,4.00
2017-11-26T11:27:11.870Z,4.15
2017-11-26T11:29:38.146Z,4.65
2017-11-26T11:32:04.402Z,4.25
2017-11-26T11:34:30.699Z,5.25
2017-11-26T11:36:56.914Z,4.28
2017-11-26T11:39:23.216Z,5.53
2017-11-26T11:41:49.467Z,6.57
2017-11-26T11:44:16.066Z,4.50
2017-11-26T11:46:42.306Z,5.55
2017-11-26T11:49:08.599Z,3.92
2017-11-26T11:51:34.883Z,4.03
2017-11-26T11:54:02.176Z,4.78
2017-11-26T11:56:28.451Z,3.75
2017-11-26T11:58:54.760Z,4.10
2017-11-26T12:01:21.080Z,2.85
2017-11-26T12:03:47.417Z,3.92
2017-11-26T12:06:13.703Z,2.72
2017-11-26T12:08:40.334Z,5.20
2017-11-26T12:11:07.044Z,3.05
2017-11-26T12:13:33.288Z,3.65
2017-11-26T12:15:59.643Z,3.65
2017-11-26T12:18:26.006Z,3.20
2017-11-26T12:20:52.333Z,2.80
2017-11-26T12:23:18.665Z,3.67
2017-11-26T12:25:44.962Z,5.65
2017-11-26T12:28:11.261Z,5.35
2017-11-26T12:30:37.525Z,4.53
2017-11-26T12:33:04.161Z,3.33
2017-11-26T12:35:30.511Z,3.80
2017-11-26T12:37:56.809Z,2.17
2017-11-26T12:40:23.482Z,5.72
2017-11-26T12:42:49.829Z,4.37
2017-11-26T12:45:16.121Z,3.55
2017-11-26T12:47:42.771Z,3.22
2017-11-26T12:50:09.055Z,2.80
2017-11-26T12:52:35.320Z,3.47
2017-11-26T12:55:01.607Z,2.70
2017-11-26T12:57:27.887Z,2.35
2017-11-26T12:59:54.217Z,1.35
2017-11-26T13:02:20.520Z,2.28
2017-11-26T13:04:47.146Z,1.92
2017-11-26T13:07:13.456Z,3.90
2017-11-26T13:09:39.789Z,1.95
2017-11-26T13:12:06.096Z,2.00
2017-11-26T13:14:32.416Z,1.80
2017-11-26T13:16:58.722Z,3.80
2017-11-26T13:19:25.002Z,2.30
2017-11-26T13:21:51.317Z,5.20
2017-11-26T13:24:17.596Z,4.82
2017-11-26T13:26:44.243Z,3.87
2017-11-26T13:29:10.876Z,4.53
2017-11-26T13:31:37.537Z,3.08
2017-11-26T13:34:03.927Z,4.15
2017-11-26T13:36:30.218Z,3.75
2017-11-26T13:38:56.488Z,4.65
2017-11-26T13:41:22.805Z,5.65
2017-11-26T13:43:49.069Z,1.80
2017-11-26T13:46:15.711Z,1.50
2017-11-26T13:48:42.347Z,4.25
2017-11-26T13:51:08.639Z,3.33
2017-11-26T13:53:34.917Z,2.03
2017-11-26T13:56:01.199Z,2.37
2017-11-26T13:58:27.488Z,4.00
2017-11-26T14:00:53.787Z,14.05
2017-11-26T14:03:20.049Z,2.92
2017-11-26T14:05:46.366Z,2.78
2017-11-26T14:08:12.666Z,3.83
2017-11-26T14:10:38.945Z,2.37
2017-11-26T14:13:05.357Z,2.87
2017-11-26T14:15:31.628Z,3.53
2017-11-26T14:17:57.902Z,3.83
2017-11-26T14:20:24.154Z,2.58
2017-11-26T14:22:50.950Z,2.50
2017-11-26T14:25:18.147Z,2.08
2017-11-26T14:27:44.447Z,4.57
2017-11-26T14:30:10.801Z,2.37
2017-11-26T14:32:37.092Z,1.48
2017-11-26T14:35:03.795Z,4.60
2017-11-26T14:37:30.116Z,6.15
2017-11-26T14:39:56.431Z,2.30
2017-11-26T14:42:22.735Z,2.60
2017-11-26T14:44:49.365Z,4.25
2017-11-26T14:47:15.686Z,2.22
2017-11-26T14:49:41.966Z,4.22
2017-11-26T14:52:08.284Z,2.25
2017-11-26T14:54:34.568Z,2.12
2017-11-26T14:57:01.333Z,1.95
2017-11-26T14:59:27.649Z,4.00
2017-11-26T15:01:54.346Z,4.20
2017-11-26T15:04:20.645Z,5.57
2017-11-26T15:06:46.951Z,2.85
2017-11-26T15:09:13.579Z,5.32
2017-11-26T15:11:39.888Z,6.30
2017-11-26T15:14:06.216Z,3.92
2017-11-26T15:16:32.567Z,3.30
2017-11-26T15:18:58.940Z,3.42
2017-11-26T15:21:25.222Z,3.65
2017-11-26T15:23:51.573Z,4.97
2017-11-26T15:26:18.237Z,3.22
2017-11-26T15:28:44.564Z,2.87
2017-11-26T15:31:10.837Z,4.87
2017-11-26T15:33:37.169Z,3.10
2017-11-26T15:36:03.516Z,5.03
2017-11-26T15:38:29.817Z,2.70
2017-11-26T15:40:56.168Z,4.80
2017-11-26T15:43:22.448Z,4.20
2017-11-26T15:45:48.761Z,4.72
2017-11-26T15:48:15.096Z,3.42
2017-11-26T15:50:41.368Z,4.80
2017-11-26T15:53:07.719Z,4.22
2017-11-26T15:55:34.034Z,5.40
2017-11-26T15:58:00.387Z,3.40
2017-11-26T16:00:26.673Z,4.07
2017-11-26T16:02:52.941Z,5.78
2017-11-26T16:05:19.273Z,19.23
2017-11-26T16:07:46.699Z,9.80
2017-11-26T16:10:12.991Z,7.28
2017-11-26T16:12:39.289Z,8.23
2017-11-26T16:15:05.963Z,4.72
2017-11-26T16:17:32.258Z,5.62
2017-11-26T16:19:58.523Z,5.57
2017-11-26T16:22:24.789Z,5.35
2017-11-26T16:24:51.099Z,6.68
2017-11-26T16:27:17.375Z,8.40
2017-11-26T16:29:43.682Z,7.15
2017-11-26T16:32:09.967Z,7.40
2017-11-26T16:34:36.301Z,8.63
2017-11-26T16:37:02.567Z,7.25
2017-11-26T16:39:28.850Z,6.97
2017-11-26T16:41:55.203Z,7.32
2017-11-26T16:44:21.549Z,5.60
2017-11-26T16:46:47.873Z,6.82
2017-11-26T16:49:14.185Z,10.07
2017-11-26T16:51:40.501Z,5.55
2017-11-26T16:54:06.840Z,5.78
2017-11-26T16:56:33.210Z,6.10
2017-11-26T16:58:59.559Z,6.45
2017-11-26T17:01:25.864Z,6.22
2017-11-26T17:03:52.252Z,7.80
2017-11-26T17:06:18.974Z,10.18
2017-11-26T17:08:46.157Z,17.52
2017-11-26T17:11:12.490Z,11.80
2017-11-26T17:13:38.753Z,10.70
2017-11-26T17:16:05.044Z,7.28
2017-11-26T17:18:31.332Z,8.43
2017-11-26T17:20:57.685Z,6.55
2017-11-26T17:23:24.369Z,6.25
2017-11-26T17:25:50.658Z,7.90
2017-11-26T17:28:16.944Z,8.82
2017-11-26T17:30:43.359Z,8.70
2017-11-26T17:33:09.713Z,9.30
2017-11-26T17:35:36.007Z,7.60
2017-11-26T17:38:02.356Z,7.43
2017-11-26T17:40:28.762Z,10.43
2017-11-26T17:42:55.054Z,8.70
2017-11-26T17:45:21.369Z,9.43
2017-11-26T17:47:47.696Z,7.05
2017-11-26T17:50:14.025Z,6.97
2017-11-26T17:52:40.368Z,8.63
2017-11-26T17:55:06.695Z,7.45
2017-11-26T17:57:33.024Z,6.00
2017-11-26T17:59:59.344Z,6.40
2017-11-26T18:02:25.682Z,6.12
2017-11-26T18:04:51.962Z,5.40
2017-11-26T18:07:18.280Z,7.07
2017-11-26T18:09:44.541Z,6.40
2017-11-26T18:12:10.828Z,5.50
2017-11-26T18:14:37.134Z,6.12
2017-11-26T18:17:03.512Z,5.47
2017-11-26T18:19:29.816Z,5.97
2017-11-26T18:21:56.476Z,5.43
2017-11-26T18:24:22.749Z,7.70
2017-11-26T18:26:49.051Z,6.50
2017-11-26T18:29:15.331Z,5.30
2017-11-26T18:31:41.586Z,5.32
2017-11-26T18:34:07.812Z,8.43
2017-11-26T18:36:34.091Z,4.53
2017-11-26T18:39:00.385Z,6.07
2017-11-26T18:41:26.688Z,5.50
2017-11-26T18:43:53.374Z,8.43
2017-11-26T18:46:19.660Z,9.73
2017-11-26T18:48:45.948Z,8.45
2017-11-26T18:51:12.257Z,9.60
2017-11-26T18:53:38.512Z,9.65
2017-11-26T18:56:04.803Z,6.93
2017-11-26T18:58:31.097Z,6.00
2017-11-26T19:00:58.682Z,7.00
2017-11-26T19:03:24.990Z,5.22
2017-11-26T19:05:51.616Z,5.50
2017-11-26T19:08:17.937Z,5.65
2017-11-26T19:10:44.202Z,5.18
2017-11-26T19:13:11.526Z,5.15
2017-11-26T19:15:37.808Z,6.80
2017-11-26T19:18:04.111Z,5.93
2017-11-26T19:20:30.388Z,6.03
2017-11-26T19:22:56.723Z,6.05
2017-11-26T19:25:22.967Z,6.70
2017-11-26T19:27:49.217Z,6.05
2017-11-26T19:30:15.560Z,5.87
2017-11-26T19:32:41.851Z,6.40
2017-11-26T19:35:08.146Z,6.30
2017-11-26T19:37:34.453Z,7.68
2017-11-26T19:40:00.768Z,6.62
2017-11-26T19:42:27.078Z,7.47
2017-11-26T19:44:53.375Z,7.90
2017-11-26T19:47:19.717Z,8.23
2017-11-26T19:49:46.009Z,9.60
2017-11-26T19:52:12.326Z,7.10
2017-11-26T19:54:38.628Z,10.18
2017-11-26T19:57:04.973Z,7.25
2017-11-26T19:59:31.343Z,9.20
2017-11-26T20:01:57.706Z,7.62
2017-11-26T20:04:23.994Z,6.47
2017-11-26T20:06:50.334Z,6.45
2017-11-26T20:09:16.644Z,5.95
2017-11-26T20:11:43.017Z,7.22
2017-11-26T20:14:09.448Z,6.80
2017-11-26T20:16:35.791Z,6.85
2017-11-26T20:19:02.067Z,8.50
2017-11-26T20:21:28.312Z,7.35
2017-11-26T20:23:54.630Z,7.57
2017-11-26T20:26:21.226Z,6.18
2017-11-26T20:28:47.570Z,23.30
2017-11-26T20:31:13.946Z,10.23
2017-11-26T20:33:40.285Z,9.57
2017-11-26T20:36:06.608Z,11.55
2017-11-26T20:38:32.872Z,15.02
2017-11-26T20:40:59.252Z,6.82
2017-11-26T20:43:25.540Z,7.47
2017-11-26T20:45:52.186Z,8.25
2017-11-26T20:48:18.496Z,7.97
2017-11-26T20:50:44.759Z,7.07
2017-11-26T20:53:11.412Z,12.93
2017-11-26T20:55:37.714Z,13.02
2017-11-26T20:58:03.948Z,11.82
2017-11-26T21:00:30.303Z,10.93
2017-11-26T21:02:56.617Z,10.57
2017-11-26T21:05:22.892Z,10.63
2017-11-26T21:07:49.204Z,9.05
2017-11-26T21:10:15.499Z,7.90
2017-11-26T21:12:41.804Z,8.20
2017-11-26T21:15:08.090Z,9.75
2017-11-26T21:17:34.408Z,7.85
2017-11-26T21:20:00.666Z,8.10
2017-11-26T21:22:26.938Z,7.35
2017-11-26T21:24:53.678Z,6.75
2017-11-26T21:27:20.340Z,8.10
2017-11-26T21:29:46.617Z,20.70
2017-11-26T21:32:13.003Z,9.82
2017-11-26T21:34:39.279Z,9.55
2017-11-26T21:37:05.600Z,9.75
2017-11-26T21:39:31.873Z,8.95
2017-11-26T21:41:58.122Z,9.38
2017-11-26T21:44:24.411Z,9.05
2017-11-26T21:46:50.650Z,8.90
2017-11-26T21:49:17.283Z,9.32
2017-11-26T21:51:43.552Z,13.75
2017-11-26T21:54:09.804Z,10.60
2017-11-26T21:56:36.868Z,12.40
2017-11-26T21:59:03.114Z,11.40
2017-11-26T22:01:29.449Z,11.65
2017-11-26T22:03:56.065Z,15.95
2017-11-26T22:06:22.316Z,16.33
2017-11-26T22:08:48.566Z,13.15
2017-11-26T22:11:14.850Z,11.05
2017-11-26T22:13:41.117Z,11.25
2017-11-26T22:16:07.379Z,10.65
2017-11-26T22:18:33.661Z,11.63
2017-11-26T22:21:00.632Z,13.00
2017-11-26T22:23:26.924Z,12.00
2017-11-26T22:25:53.234Z,17.90
2017-11-26T22:28:19.527Z,15.82
2017-11-26T22:30:46.061Z,12.00
2017-11-26T22:33:12.303Z,12.07
2017-11-26T22:35:38.550Z,12.30
2017-11-26T22:38:04.792Z,15.73
2017-11-26T22:40:31.063Z,16.48
2017-11-26T22:42:57.282Z,21.23
2017-11-26T22:45:23.530Z,20.92
2017-11-26T22:47:49.826Z,22.23
2017-11-26T22:50:16.053Z,18.70
2017-11-26T22:52:42.266Z,12.60
2017-11-26T22:55:08.492Z,9.95
2017-11-26T22:57:34.705Z,10.98
2017-11-26T23:00:01.000Z,12.13
2017-11-26T23:02:27.260Z,17.30
2017-11-26T23:04:53.477Z,18.90
2017-11-26T23:07:19.706Z,20.25
2017-11-26T23:09:45.971Z,20.37
2017-11-26T23:12:12.278Z,27.98
2017-11-26T23:14:38.503Z,21.60
2017-11-26T23:17:04.755Z,17.98
2017-11-26T23:19:30.941Z,15.77
2017-11-26T23:21:57.213Z,9.93
2017-11-26T23:24:23.453Z,9.82
2017-11-26T23:26:49.741Z,9.25
2017-11-26T23:29:15.953Z,10.52
2017-11-26T23:31:42.173Z,9.13
2017-11-26T23:34:08.373Z,8.00
2017-11-26T23:36:34.977Z,9.05
2017-11-26T23:39:01.205Z,9.90
2017-11-26T23:41:27.452Z,9.18
2017-11-26T23:43:53.699Z,11.70
2017-11-26T23:46:19.923Z,11.05
2017-11-26T23:48:46.535Z,10.48
2017-11-26T23:51:12.753Z,12.82
2017-11-26T23:53:38.990Z,13.90
2017-11-26T23:56:05.218Z,12.20
2017-11-26T23:58:31.421Z,11.80
